Time;durP1;ratioP1;P1;durP2;ratioP2;P2;SDS_P1;SDS_P2;PMS_P1;PMS_P2;Temp;Humidity;BMP_temperature;BMP_pressure;BME280_temperature;BME280_humidity;BME280_pressure;Samples;Min_cycle;Max_cycle;Signal;HPM_P1;HPM_P2
2024/02/03 00:00:26;;;;;;;23.45;5.50;;;10.10;99.90;;;;;;5064344;28;20049;-55
2024/02/03 00:02:52;;;;;;;40.05;8.00;;;10.20;99.90;;;;;;5065486;28;20036;-55
2024/02/03 00:05:18;;;;;;;24.15;5.95;;;10.20;99.90;;;;;;5065195;28;20337;-53
2024/02/03 00:07:43;;;;;;;27.55;6.82;;;10.20;99.90;;;;;;5064838;28;20032;-55
2024/02/03 00:10:09;;;;;;;34.78;6.50;;;10.20;99.90;;;;;;5064924;28;20065;-55
2024/02/03 00:12:35;;;;;;;32.05;7.25;;;10.20;99.90;;;;;;5065112;28;20037;-56
2024/02/03 00:15:01;;;;;;;36.90;6.90;;;10.20;99.90;;;;;;5063860;28;20029;-54
2024/02/03 00:17:27;;;;;;;31.83;7.75;;;10.20;99.90;;;;;;5064793;28;20063;-55
2024/02/03 00:19:53;;;;;;;33.88;6.80;;;10.20;99.90;;;;;;5064622;28;20021;-55
2024/02/03 00:22:19;;;;;;;23.42;5.63;;;10.30;99.90;;;;;;5064834;28;20078;-55
2024/02/03 00:24:45;;;;;;;26.58;5.57;;;10.20;99.90;;;;;;5066427;28;20096;-53
2024/02/03 00:27:10;;;;;;;32.47;7.00;;;10.20;99.90;;;;;;5068621;28;20227;-55
2024/02/03 00:29:36;;;;;;;34.83;7.45;;;10.30;99.90;;;;;;5068406;28;20017;-54
2024/02/03 00:32:02;;;;;;;43.72;9.32;;;10.30;99.90;;;;;;5068437;28;20033;-55
2024/02/03 00:34:27;;;;;;;42.50;7.60;;;10.30;99.90;;;;;;5068411;28;20020;-55
2024/02/03 00:36:53;;;;;;;36.42;7.28;;;10.30;99.90;;;;;;5068570;28;20087;-55
2024/02/03 00:39:19;;;;;;;30.13;7.50;;;10.30;99.90;;;;;;5068292;28;20033;-55
2024/02/03 00:41:44;;;;;;;22.55;4.65;;;10.30;99.90;;;;;;5068095;28;20036;-55
2024/02/03 00:44:10;;;;;;;34.80;6.88;;;10.40;99.90;;;;;;5068409;28;20092;-55
2024/02/03 00:46:36;;;;;;;24.77;5.53;;;10.40;99.90;;;;;;5068304;28;20206;-55
2024/02/03 00:49:01;;;;;;;25.92;7.00;;;10.50;99.90;;;;;;5068382;28;20043;-55
2024/02/03 00:51:27;;;;;;;21.45;5.40;;;10.60;99.90;;;;;;5068348;28;20095;-55
2024/02/03 00:53:53;;;;;;;30.67;6.05;;;10.60;99.90;;;;;;5068200;28;20029;-54
2024/02/03 00:56:18;;;;;;;31.08;6.45;;;10.60;99.90;;;;;;5068111;28;20036;-55
2024/02/03 00:58:44;;;;;;;35.75;7.22;;;10.60;99.90;;;;;;5068212;28;20021;-55
2024/02/03 01:01:10;;;;;;;25.27;5.85;;;10.60;99.90;;;;;;5068065;28;20033;-55
2024/02/03 01:03:35;;;;;;;22.20;5.65;;;10.60;99.90;;;;;;5068036;28;20335;-56
2024/02/03 01:06:01;;;;;;;21.40;5.72;;;10.60;99.90;;;;;;5068321;28;20037;-56
2024/02/03 01:08:27;;;;;;;23.02;5.97;;;10.70;99.90;;;;;;5068003;28;20033;-56
2024/02/03 01:10:52;;;;;;;27.55;5.13;;;10.70;99.90;;;;;;5067923;28;20092;-55
2024/02/03 01:13:18;;;;;;;24.20;6.15;;;10.70;99.90;;;;;;5067955;28;20326;-56
2024/02/03 01:15:44;;;;;;;21.88;5.35;;;10.70;99.90;;;;;;5067810;28;20040;-56
2024/02/03 01:18:10;;;;;;;19.10;4.85;;;10.70;99.90;;;;;;5067526;28;20234;-53
2024/02/03 01:20:35;;;;;;;29.25;6.25;;;10.70;99.90;;;;;;5067810;28;20041;-55
2024/02/03 01:23:01;;;;;;;29.98;5.32;;;10.60;99.90;;;;;;5067670;28;20119;-56
2024/02/03 01:25:27;;;;;;;28.70;5.68;;;10.60;99.90;;;;;;5066963;28;20036;-54
2024/02/03 01:27:52;;;;;;;34.58;6.13;;;10.50;99.90;;;;;;5067579;28;20033;-55
2024/02/03 01:30:18;;;;;;;38.47;6.30;;;10.50;99.90;;;;;;5067562;28;20053;-55
2024/02/03 01:32:44;;;;;;;34.55;7.40;;;10.40;99.90;;;;;;5067556;28;20031;-55
2024/02/03 01:35:09;;;;;;;32.90;7.03;;;10.40;99.90;;;;;;5066154;28;20025;-55
2024/02/03 01:37:35;;;;;;;36.10;8.00;;;10.40;99.90;;;;;;5067158;28;20025;-54
2024/02/03 01:40:02;;;;;;;39.28;7.97;;;10.40;99.90;;;;;;5067190;28;20035;-54
2024/02/03 01:42:28;;;;;;;39.13;9.13;;;10.40;99.90;;;;;;5066324;28;20040;-56
2024/02/03 01:44:54;;;;;;;41.35;7.97;;;10.40;99.90;;;;;;5067240;28;20032;-54
2024/02/03 01:47:19;;;;;;;33.97;6.55;;;10.40;99.90;;;;;;5066884;28;20040;-55
2024/02/03 01:49:45;;;;;;;30.65;6.43;;;10.40;99.90;;;;;;5066476;28;20283;-55
2024/02/03 01:52:13;;;;;;;32.17;6.47;;;10.40;99.90;;;;;;5067095;28;20036;-55
2024/02/03 01:54:38;;;;;;;33.67;6.75;;;10.40;99.90;;;;;;5067178;28;20060;-55
2024/02/03 01:57:04;;;;;;;24.75;5.63;;;10.40;99.90;;;;;;5067142;28;20052;-55
2024/02/03 01:59:30;;;;;;;43.90;7.93;;;10.40;99.90;;;;;;5049546;28;20050;-54
2024/02/03 02:01:56;;;;;;;42.28;9.13;;;10.40;99.90;;;;;;5065891;28;20025;-55
2024/02/03 02:04:25;;;;;;;43.83;8.48;;;10.40;99.90;;;;;;5066847;28;20052;-54
2024/02/03 02:06:51;;;;;;;39.40;6.83;;;10.40;99.90;;;;;;5050068;28;20032;-55
2024/02/03 02:09:23;;;;;;;36.88;6.55;;;10.40;99.90;;;;;;5065817;28;20313;-56
2024/02/03 02:11:51;;;;;;;36.85;7.38;;;10.30;99.90;;;;;;5066671;28;20078;-50
2024/02/03 02:14:18;;;;;;;43.30;7.65;;;10.40;99.90;;;;;;5066724;28;20088;-48
2024/02/03 02:16:44;;;;;;;28.88;6.82;;;10.40;99.90;;;;;;5066391;28;20041;-49
2024/02/03 02:19:09;;;;;;;42.83;7.80;;;10.40;99.90;;;;;;5066709;28;20101;-48
2024/02/03 02:21:35;;;;;;;44.40;9.00;;;10.40;99.90;;;;;;5066553;28;20028;-50
2024/02/03 02:24:01;;;;;;;30.95;7.43;;;10.40;99.90;;;;;;5066757;28;20090;-47
2024/02/03 02:26:27;;;;;;;35.78;8.10;;;10.40;99.90;;;;;;5065379;28;20039;-51
2024/02/03 02:28:52;;;;;;;28.02;6.05;;;10.50;99.90;;;;;;5066551;28;20029;-49
2024/02/03 02:31:18;;;;;;;36.20;8.88;;;10.50;99.90;;;;;;5066348;28;20029;-48
2024/02/03 02:33:44;;;;;;;34.50;7.35;;;10.50;99.90;;;;;;5066345;28;20039;-48
2024/02/03 02:36:09;;;;;;;43.30;7.32;;;10.50;99.90;;;;;;5066185;28;20144;-50
2024/02/03 02:38:35;;;;;;;23.55;6.35;;;10.60;99.90;;;;;;5066896;28;20032;-50
2024/02/03 02:41:01;;;;;;;36.75;7.45;;;10.60;99.90;;;;;;5066218;28;20056;-50
2024/02/03 02:43:26;;;;;;;42.53;7.47;;;10.60;99.90;;;;;;5066112;28;20191;-49
2024/02/03 02:45:52;;;;;;;43.13;8.40;;;10.50;99.90;;;;;;5066148;28;20074;-49
2024/02/03 02:48:18;;;;;;;31.52;7.72;;;10.60;99.90;;;;;;5064362;28;20186;-51
2024/02/03 02:50:44;;;;;;;25.98;6.15;;;10.60;99.90;;;;;;5066057;28;20110;-50
2024/02/03 02:53:09;;;;;;;43.33;7.70;;;10.60;99.90;;;;;;5066020;28;20017;-51
2024/02/03 02:55:35;;;;;;;41.03;8.18;;;10.60;99.90;;;;;;5066023;28;20029;-51
2024/02/03 02:58:01;;;;;;;40.28;8.05;;;10.60;99.90;;;;;;5065783;28;20032;-50
2024/02/03 03:00:27;;;;;;;36.47;7.13;;;10.60;99.90;;;;;;5065838;28;20054;-51
2024/02/03 03:02:53;;;;;;;40.05;7.07;;;10.60;99.90;;;;;;5065972;28;20029;-51
2024/02/03 03:05:18;;;;;;;42.47;8.48;;;10.60;99.90;;;;;;5065948;28;20167;-50
2024/02/03 03:07:44;;;;;;;35.15;8.77;;;10.60;99.90;;;;;;5065785;28;20025;-51
2024/02/03 03:10:10;;;;;;;36.30;7.65;;;10.60;99.90;;;;;;5065631;28;20036;-51
2024/02/03 03:12:36;;;;;;;36.60;7.57;;;10.70;99.90;;;;;;5064719;28;20040;-48
2024/02/03 03:15:02;;;;;;;42.70;7.60;;;10.70;99.90;;;;;;5048048;28;20017;-48
2024/02/03 03:17:28;;;;;;;40.42;7.32;;;10.60;99.90;;;;;;5065517;28;20048;-48
2024/02/03 03:19:55;;;;;;;39.05;8.90;;;10.60;99.90;;;;;;5065562;28;20055;-48
2024/02/03 03:22:21;;;;;;;36.13;6.68;;;10.70;99.90;;;;;;5065592;28;20321;-48
2024/02/03 03:24:47;;;;;;;38.08;8.35;;;10.70;99.90;;;;;;5065634;28;20037;-49
2024/02/03 03:27:12;;;;;;;35.72;8.05;;;10.70;99.90;;;;;;5065127;28;20029;-48
2024/02/03 03:29:38;;;;;;;40.15;7.70;;;10.70;99.90;;;;;;5065555;28;20040;-50
2024/02/03 03:32:04;;;;;;;24.42;5.55;;;10.60;99.90;;;;;;5064330;28;20037;-48
2024/02/03 03:34:30;;;;;;;29.67;8.85;;;10.70;99.90;;;;;;5065485;28;20025;-51
2024/02/03 03:36:56;;;;;;;30.77;7.20;;;10.70;99.90;;;;;;5065527;28;20093;-51
2024/02/03 03:39:21;;;;;;;33.22;7.05;;;10.70;99.90;;;;;;5065187;28;20029;-51
2024/02/03 03:41:47;;;;;;;42.58;6.55;;;10.70;99.90;;;;;;5065619;28;20093;-51
2024/02/03 03:44:13;;;;;;;29.13;6.80;;;10.70;99.90;;;;;;5047649;28;20025;-55
2024/02/03 03:46:39;;;;;;;40.13;6.78;;;10.70;99.90;;;;;;5065488;28;20033;-48
2024/02/03 03:49:04;;;;;;;35.70;7.93;;;10.70;99.90;;;;;;5064465;28;20036;-50
2024/02/03 03:51:31;;;;;;;32.63;7.10;;;10.70;99.90;;;;;;5065208;28;20191;-51
2024/02/03 03:53:56;;;;;;;27.75;7.22;;;10.70;99.90;;;;;;5065515;28;20235;-50
2024/02/03 03:56:22;;;;;;;33.67;6.88;;;10.70;99.90;;;;;;5065274;28;20092;-51
2024/02/03 03:58:48;;;;;;;31.50;7.53;;;10.70;99.90;;;;;;5066375;28;20021;-51
2024/02/03 04:01:13;;;;;;;32.35;6.32;;;10.80;99.90;;;;;;5068858;28;20063;-52
2024/02/03 04:03:39;;;;;;;32.95;6.38;;;10.80;99.90;;;;;;5069194;28;20112;-51
2024/02/03 04:06:05;;;;;;;25.88;5.22;;;10.80;99.90;;;;;;5069085;28;20028;-51
2024/02/03 04:08:31;;;;;;;26.98;6.70;;;10.80;99.90;;;;;;5069290;28;20040;-51
2024/02/03 04:10:56;;;;;;;24.67;5.47;;;10.80;99.90;;;;;;5069127;28;20088;-51
2024/02/03 04:13:22;;;;;;;29.95;6.78;;;10.90;99.90;;;;;;5068711;28;20028;-51
2024/02/03 04:15:48;;;;;;;32.88;6.85;;;10.80;99.90;;;;;;5069089;28;20143;-51
2024/02/03 04:18:13;;;;;;;30.13;7.03;;;10.80;99.90;;;;;;5068695;28;20077;-49
2024/02/03 04:20:39;;;;;;;37.13;8.48;;;10.80;99.90;;;;;;5068883;28;20025;-48
2024/02/03 04:23:05;;;;;;;25.23;5.82;;;10.90;99.90;;;;;;5068961;28;20036;-48
2024/02/03 04:25:30;;;;;;;27.92;6.10;;;10.80;99.90;;;;;;5068747;28;20024;-50
2024/02/03 04:27:56;;;;;;;30.75;7.35;;;10.80;99.90;;;;;;5068742;28;20029;-51
2024/02/03 04:30:22;;;;;;;25.98;6.88;;;10.80;99.90;;;;;;5068775;28;20329;-51
2024/02/03 04:32:47;;;;;;;30.52;6.07;;;10.70;99.90;;;;;;5068145;28;20037;-50
2024/02/03 04:35:13;;;;;;;31.90;6.32;;;10.80;99.90;;;;;;5068744;28;20047;-51
2024/02/03 04:37:39;;;;;;;22.33;5.47;;;10.80;99.90;;;;;;5067686;28;20033;-48
2024/02/03 04:40:06;;;;;;;38.28;7.20;;;10.80;99.90;;;;;;5068420;28;20267;-51
2024/02/03 04:42:32;;;;;;;38.28;7.00;;;10.80;99.90;;;;;;5067530;28;20331;-51
2024/02/03 04:44:57;;;;;;;34.13;6.38;;;10.80;99.90;;;;;;5068487;28;20090;-51
2024/02/03 04:47:23;;;;;;;17.92;5.85;;;10.70;99.90;;;;;;5067234;28;20039;-51
2024/02/03 04:49:48;;;;;;;37.30;7.20;;;10.70;99.90;;;;;;5068341;28;20092;-51
2024/02/03 04:52:14;;;;;;;35.10;7.90;;;10.70;99.90;;;;;;5068118;28;20041;-51
2024/02/03 04:54:40;;;;;;;20.65;5.68;;;10.80;99.90;;;;;;5067237;28;20021;-50
2024/02/03 04:57:06;;;;;;;39.13;7.35;;;10.80;99.90;;;;;;5068237;28;20029;-51
2024/02/03 04:59:32;;;;;;;33.80;5.75;;;10.80;99.90;;;;;;5067252;28;20270;-51
2024/02/03 05:01:58;;;;;;;24.13;5.72;;;10.80;99.90;;;;;;5067253;28;20025;-51
2024/02/03 05:04:23;;;;;;;30.75;6.30;;;10.80;99.90;;;;;;5068003;28;20025;-51
2024/02/03 05:06:49;;;;;;;33.35;6.50;;;10.80;99.90;;;;;;5068062;28;20182;-48
2024/02/03 05:09:14;;;;;;;28.00;6.25;;;10.80;99.90;;;;;;5068043;28;20029;-51
2024/02/03 05:11:40;;;;;;;21.00;5.05;;;10.90;99.90;;;;;;5065994;28;20035;-49
2024/02/03 05:14:06;;;;;;;24.38;6.18;;;10.90;99.90;;;;;;5067753;28;20044;-51
2024/02/03 05:16:31;;;;;;;29.90;6.57;;;10.90;99.90;;;;;;5067706;28;20041;-51
2024/02/03 05:18:57;;;;;;;26.95;6.28;;;10.90;99.90;;;;;;5067864;28;20029;-49
2024/02/03 05:21:23;;;;;;;27.00;5.53;;;10.90;99.90;;;;;;5067446;28;20104;-50
2024/02/03 05:23:49;;;;;;;35.90;7.00;;;10.90;99.90;;;;;;5067866;28;20029;-49
2024/02/03 05:26:15;;;;;;;19.88;4.45;;;10.90;99.90;;;;;;5067542;28;20032;-49
2024/02/03 05:28:40;;;;;;;30.30;5.75;;;10.90;99.90;;;;;;5067640;28;20044;-49
2024/02/03 05:31:06;;;;;;;30.85;5.40;;;10.90;99.90;;;;;;5067560;28;20037;-50
2024/02/03 05:33:32;;;;;;;29.58;6.03;;;10.90;99.90;;;;;;5067327;28;20021;-48
2024/02/03 05:35:57;;;;;;;34.70;6.03;;;10.90;99.90;;;;;;5067359;28;20096;-48
2024/02/03 05:38:23;;;;;;;34.75;6.45;;;10.90;99.90;;;;;;5067513;28;20036;-49
2024/02/03 05:40:49;;;;;;;30.00;7.07;;;10.90;99.90;;;;;;5067496;28;20024;-48
2024/02/03 05:43:15;;;;;;;30.67;6.00;;;10.90;99.90;;;;;;5067420;28;20100;-48
2024/02/03 05:45:41;;;;;;;36.70;6.50;;;10.80;99.90;;;;;;5067455;28;20025;-48
2024/02/03 05:48:07;;;;;;;25.90;5.60;;;10.80;99.90;;;;;;5067498;28;20062;-49
2024/02/03 05:50:33;;;;;;;30.48;6.20;;;10.80;99.90;;;;;;5067120;28;20028;-48
2024/02/03 05:52:59;;;;;;;31.85;5.53;;;10.80;99.90;;;;;;5066015;28;20035;-47
2024/02/03 05:55:25;;;;;;;36.72;6.53;;;10.80;99.90;;;;;;5066932;28;20112;-49
2024/02/03 05:57:55;;;;;;;25.63;6.30;;;10.80;99.90;;;;;;5067092;28;20032;-51
2024/02/03 06:00:20;;;;;;;;;;;10.80;99.90;;;;;;5067455;28;20178;-51
2024/02/03 06:02:46;;;;;;;28.48;6.22;;;10.80;99.90;;;;;;5067106;28;19971;-51
2024/02/03 06:05:12;;;;;;;33.00;6.28;;;10.80;99.90;;;;;;5067002;28;20040;-51
2024/02/03 06:07:38;;;;;;;29.10;6.25;;;10.80;99.90;;;;;;5066780;28;20029;-51
2024/02/03 06:10:05;;;;;;;26.92;5.82;;;10.80;99.90;;;;;;5066634;28;20096;-50
2024/02/03 06:12:31;;;;;;;31.77;6.97;;;10.80;99.90;;;;;;5066686;28;20032;-51
2024/02/03 06:14:57;;;;;;;29.25;6.30;;;10.80;99.90;;;;;;5066746;28;20025;-51
2024/02/03 06:17:22;;;;;;;25.17;6.05;;;10.80;99.90;;;;;;5066174;28;20118;-51
2024/02/03 06:19:48;;;;;;;28.95;5.85;;;10.80;99.90;;;;;;5066639;28;20202;-50
2024/02/03 06:22:14;;;;;;;24.92;5.78;;;10.80;99.90;;;;;;5065617;28;20313;-50
2024/02/03 06:24:40;;;;;;;23.45;6.18;;;10.80;99.90;;;;;;5066611;28;20084;-51
2024/02/03 06:27:06;;;;;;;27.65;5.57;;;10.80;99.90;;;;;;5066602;28;20039;-50
2024/02/03 06:29:31;;;;;;;23.67;6.82;;;10.70;99.90;;;;;;5066612;28;20037;-48
2024/02/03 06:31:57;;;;;;;26.73;6.50;;;10.70;99.90;;;;;;5066139;28;20032;-49
2024/02/03 06:34:23;;;;;;;28.25;6.05;;;10.70;99.90;;;;;;5048758;28;20226;-49
2024/02/03 06:36:49;;;;;;;31.15;6.38;;;10.70;99.90;;;;;;5066502;28;20052;-51
2024/02/03 06:39:14;;;;;;;31.25;5.55;;;10.70;99.90;;;;;;5066240;28;20032;-51
2024/02/03 06:41:40;;;;;;;30.92;6.70;;;10.70;99.90;;;;;;5065496;28;20256;-51
2024/02/03 06:44:06;;;;;;;26.92;5.85;;;10.70;99.90;;;;;;5064958;28;20198;-51
2024/02/03 06:46:32;;;;;;;34.95;6.15;;;10.70;99.90;;;;;;5065924;28;20066;-51
2024/02/03 06:48:58;;;;;;;20.52;5.40;;;10.70;99.90;;;;;;5065267;28;20067;-51
2024/02/03 06:51:24;;;;;;;26.15;5.70;;;10.60;99.90;;;;;;5066007;28;20278;-51
2024/02/03 06:53:49;;;;;;;32.25;6.25;;;10.60;99.90;;;;;;5065968;28;20025;-51
2024/02/03 06:56:15;;;;;;;31.40;6.95;;;10.60;99.90;;;;;;5065952;28;20025;-52
2024/02/03 06:58:40;;;;;;;29.92;6.35;;;10.60;99.90;;;;;;5065905;28;20302;-48
2024/02/03 07:01:06;;;;;;;26.80;6.75;;;10.60;99.90;;;;;;5065943;28;20028;-48
2024/02/03 07:03:32;;;;;;;37.35;9.48;;;10.60;99.90;;;;;;5065851;28;20024;-50
2024/02/03 07:05:57;;;;;;;27.83;7.50;;;10.60;99.90;;;;;;5065617;28;20088;-48
2024/02/03 07:08:23;;;;;;;35.35;9.65;;;10.60;99.90;;;;;;5065325;28;20111;-51
2024/02/03 07:10:49;;;;;;;32.17;6.10;;;10.60;99.90;;;;;;5065817;28;20151;-48
2024/02/03 07:13:14;;;;;;;26.20;7.05;;;10.60;99.90;;;;;;5066232;28;20302;-49
2024/02/03 07:15:40;;;;;;;33.67;8.82;;;10.60;99.90;;;;;;5065821;28;20043;-50
2024/02/03 07:18:06;;;;;;;27.75;5.05;;;10.60;99.90;;;;;;5065428;28;20045;-51
2024/02/03 07:20:32;;;;;;;28.13;5.43;;;10.50;99.90;;;;;;5065789;28;20039;-51
2024/02/03 07:22:58;;;;;;;26.27;5.93;;;10.60;99.90;;;;;;5065656;28;20025;-51
2024/02/03 07:25:23;;;;;;;27.08;4.82;;;10.60;99.90;;;;;;5065377;28;20108;-50
2024/02/03 07:27:49;;;;;;;24.63;5.82;;;10.60;99.90;;;;;;5065571;28;20282;-50
2024/02/03 07:30:15;;;;;;;20.00;5.22;;;10.60;99.90;;;;;;5065589;28;20031;-49
2024/02/03 07:32:42;;;;;;;19.10;5.10;;;10.60;99.90;;;;;;5065444;28;20086;-50
2024/02/03 07:35:08;;;;;;;25.98;6.35;;;10.60;99.90;;;;;;5069383;28;20029;-50
2024/02/03 07:37:35;;;;;;;20.77;6.18;;;10.60;99.90;;;;;;5069765;28;20025;-48
2024/02/03 07:40:00;;;;;;;18.92;4.78;;;10.60;99.90;;;;;;5069100;28;20029;-48
2024/02/03 07:42:26;;;;;;;24.73;4.85;;;10.70;99.90;;;;;;5069079;28;20223;-49
2024/02/03 07:44:52;;;;;;;22.23;6.18;;;10.60;99.90;;;;;;5069531;28;20250;-51
2024/02/03 07:47:17;;;;;;;24.75;6.43;;;10.60;99.90;;;;;;5068384;28;20111;-49
2024/02/03 07:49:43;;;;;;;22.63;4.82;;;10.60;99.90;;;;;;5069268;28;20079;-48
2024/02/03 07:52:09;;;;;;;15.38;4.75;;;10.60;99.90;;;;;;5069172;28;20298;-49
2024/02/03 07:54:34;;;;;;;20.60;5.85;;;10.60;99.90;;;;;;5069432;28;20029;-51
2024/02/03 07:57:00;;;;;;;17.08;4.68;;;10.60;99.90;;;;;;5069130;28;20036;-48
2024/02/03 07:59:27;;;;;;;22.92;4.78;;;10.60;99.90;;;;;;5069219;28;20209;-49
2024/02/03 08:01:53;;;;;;;21.05;4.30;;;10.50;99.90;;;;;;5068169;28;20028;-49
2024/02/03 08:04:18;;;;;;;19.83;4.63;;;10.50;99.90;;;;;;5069083;28;20190;-48
2024/02/03 08:06:44;;;;;;;28.17;5.85;;;10.50;99.90;;;;;;5069104;28;20032;-48
2024/02/03 08:09:09;;;;;;;20.52;4.97;;;10.50;99.90;;;;;;5069188;28;20087;-51
2024/02/03 08:11:35;;;;;;;27.75;5.95;;;10.50;99.90;;;;;;5068637;28;20096;-50
2024/02/03 08:14:01;;;;;;;24.65;7.47;;;10.50;99.90;;;;;;5069043;28;20025;-50
2024/02/03 08:16:26;;;;;;;25.85;7.07;;;10.50;99.90;;;;;;5068825;28;20056;-48
2024/02/03 08:18:52;;;;;;;28.88;6.93;;;10.50;99.90;;;;;;5068884;28;20031;-50
2024/02/03 08:21:18;;;;;;;28.98;9.25;;;10.50;99.90;;;;;;5068761;28;20021;-50
2024/02/03 08:23:43;;;;;;;31.95;7.78;;;10.50;99.90;;;;;;5068769;28;20082;-50
2024/02/03 08:26:10;;;;;;;23.60;6.97;;;10.50;99.90;;;;;;5067138;28;20051;-50
2024/02/03 08:28:36;;;;;;;31.73;8.00;;;10.50;99.90;;;;;;5067673;28;20028;-50
2024/02/03 08:31:01;;;;;;;22.48;6.70;;;10.50;99.90;;;;;;5068095;28;20032;-50
2024/02/03 08:33:28;;;;;;;21.33;5.93;;;10.50;99.90;;;;;;5068469;28;20052;-50
2024/02/03 08:35:53;;;;;;;27.52;7.00;;;10.60;99.90;;;;;;5068485;28;20039;-48
2024/02/03 08:38:19;;;;;;;15.88;5.35;;;10.60;99.90;;;;;;5068439;28;20025;-48
2024/02/03 08:40:45;;;;;;;25.50;7.53;;;10.60;99.90;;;;;;5067305;28;20033;-49
2024/02/03 08:43:11;;;;;;;25.98;6.65;;;10.60;99.90;;;;;;5068064;28;20289;-51
2024/02/03 08:45:37;;;;;;;24.58;6.93;;;10.70;99.90;;;;;;5066987;28;20029;-50
2024/02/03 08:48:03;;;;;;;28.17;7.65;;;10.70;99.90;;;;;;5068366;28;20182;-50
2024/02/03 08:50:28;;;;;;;25.35;6.93;;;10.70;99.90;;;;;;5068171;28;20127;-49
2024/02/03 08:52:54;;;;;;;24.00;6.78;;;10.70;99.90;;;;;;5068040;28;20044;-48
2024/02/03 08:55:20;;;;;;;18.60;6.28;;;10.80;99.90;;;;;;5068041;28;20342;-50
2024/02/03 08:57:45;;;;;;;29.58;7.93;;;10.80;99.90;;;;;;5066926;28;20035;-50
2024/02/03 09:00:11;;;;;;;20.45;6.95;;;10.90;99.90;;;;;;5067739;28;20055;-51
2024/02/03 09:02:37;;;;;;;22.00;6.82;;;10.90;99.90;;;;;;5067789;28;20071;-50
2024/02/03 09:05:03;;;;;;;21.77;7.28;;;10.90;99.90;;;;;;5067713;28;20021;-49
2024/02/03 09:07:29;;;;;;;17.55;5.45;;;10.90;99.90;;;;;;5067868;28;20047;-50
2024/02/03 09:09:54;;;;;;;21.27;5.93;;;10.90;99.90;;;;;;5066594;28;20047;-50
2024/02/03 09:12:20;;;;;;;19.35;4.97;;;11.00;99.90;;;;;;5067689;28;20084;-51
2024/02/03 09:14:46;;;;;;;18.13;5.35;;;11.00;99.90;;;;;;5067867;28;20017;-51
2024/02/03 09:17:12;;;;;;;16.48;4.70;;;11.00;99.90;;;;;;5067417;28;20045;-50
2024/02/03 09:19:38;;;;;;;15.18;4.57;;;11.10;99.90;;;;;;5067306;28;20028;-51
2024/02/03 09:22:03;;;;;;;15.68;4.68;;;11.10;99.90;;;;;;5067456;28;20036;-51
2024/02/03 09:24:29;;;;;;;14.45;4.20;;;11.10;99.90;;;;;;5067305;28;20305;-51
2024/02/03 09:26:55;;;;;;;12.65;4.03;;;11.10;99.90;;;;;;5067549;28;20025;-50
2024/02/03 09:29:20;;;;;;;13.23;4.82;;;11.10;99.90;;;;;;5066968;28;20028;-48
2024/02/03 09:31:46;;;;;;;16.85;4.50;;;11.20;99.90;;;;;;5067222;28;20043;-50
2024/02/03 09:34:12;;;;;;;13.00;4.00;;;11.20;99.90;;;;;;5067212;28;20021;-51
2024/02/03 09:36:41;;;;;;;17.48;4.43;;;11.20;99.90;;;;;;5066266;28;20032;-48
2024/02/03 09:39:07;;;;;;;17.52;10.00;;;11.20;99.90;;;;;;5067347;28;20044;-51
2024/02/03 09:41:32;;;;;;;18.58;7.53;;;11.30;99.90;;;;;;5067225;28;20347;-49
2024/02/03 09:43:58;;;;;;;18.70;9.65;;;11.30;99.90;;;;;;5049540;28;20051;-50
2024/02/03 09:46:24;;;;;;;18.40;7.43;;;11.40;99.90;;;;;;5049563;28;20029;-50
2024/02/03 09:48:49;;;;;;;19.65;7.47;;;11.40;99.90;;;;;;5065921;28;20143;-49
2024/02/03 09:51:15;;;;;;;18.33;4.78;;;11.40;99.90;;;;;;5067028;28;20228;-49
2024/02/03 09:53:41;;;;;;;12.95;4.18;;;11.40;99.90;;;;;;5066059;28;20191;-51
2024/02/03 09:56:07;;;;;;;14.73;3.42;;;11.40;99.90;;;;;;5065386;28;20063;-51
2024/02/03 09:58:33;;;;;;;15.88;4.18;;;11.30;99.90;;;;;;5066844;28;20283;-51
2024/02/03 10:00:58;;;;;;;10.98;3.00;;;11.40;99.90;;;;;;5066690;28;20056;-51
2024/02/03 10:03:24;;;;;;;11.40;3.65;;;11.30;99.90;;;;;;5066222;28;20017;-50
2024/02/03 10:06:02;;;;;;;13.88;2.95;;;11.30;99.90;;;;;;5066777;28;20025;-51
2024/02/03 10:08:28;;;;;;;10.20;3.50;;;11.40;99.90;;;;;;5066485;28;20190;-50
2024/02/03 10:10:55;;;;;;;12.57;3.80;;;11.40;99.90;;;;;;5066509;28;20025;-50
2024/02/03 10:13:22;;;;;;;17.15;8.95;;;11.40;99.90;;;;;;5066225;28;20025;-51
2024/02/03 10:16:01;;;;;;;26.92;18.45;;;11.40;99.90;;;;;;5066118;28;20039;-52
2024/02/03 10:18:27;;;;;;;44.80;28.67;;;11.50;99.90;;;;;;5065927;28;20059;-52
2024/02/03 10:20:53;;;;;;;19.70;10.32;;;11.60;99.90;;;;;;5065893;28;20039;-51
2024/02/03 10:23:18;;;;;;;17.42;12.40;;;11.70;99.90;;;;;;5065230;28;20017;-50
2024/02/03 10:25:44;;;;;;;27.92;18.58;;;11.70;99.90;;;;;;5048838;28;20025;-51
2024/02/03 10:28:11;;;;;;;48.55;28.58;;;11.70;99.90;;;;;;5066193;28;20072;-51
2024/02/03 10:30:37;;;;;;;45.33;29.40;;;11.70;99.90;;;;;;5066625;28;20032;-51
2024/02/03 10:33:03;;;;;;;43.55;28.08;;;11.60;99.90;;;;;;5066049;28;20099;-51
2024/02/03 10:35:30;;;;;;;12.98;5.32;;;11.60;99.90;;;;;;5065714;28;20044;-51
2024/02/03 10:37:56;;;;;;;10.65;5.93;;;11.60;99.90;;;;;;5064973;28;20028;-49
2024/02/03 10:40:33;;;;;;;12.52;3.47;;;11.70;99.90;;;;;;5066489;28;20033;-51
2024/02/03 10:42:59;;;;;;;12.05;2.85;;;11.70;99.90;;;;;;5064934;28;20043;-51
2024/02/03 10:45:29;;;;;;;8.32;3.10;;;11.70;99.90;;;;;;5065798;28;20082;-51
2024/02/03 10:47:57;;;;;;;16.58;3.33;;;11.70;99.90;;;;;;5064672;28;20039;-53
2024/02/03 10:50:33;;;;;;;209.70;117.75;;;11.80;99.90;;;;;;5065902;28;20056;-51
2024/02/03 10:53:02;;;;;;;282.20;164.68;;;11.80;99.90;;;;;;5049401;28;20032;-52
2024/02/03 10:55:28;;;;;;;86.43;38.95;;;11.80;99.90;;;;;;5064767;28;20044;-51
2024/02/03 10:57:53;;;;;;;37.88;21.05;;;11.80;99.90;;;;;;5064373;28;20088;-52
2024/02/03 11:00:21;;;;;;;83.55;53.45;;;11.80;99.90;;;;;;5047932;28;20017;-51
2024/02/03 11:02:53;;;;;;;19.88;12.13;;;11.80;99.90;;;;;;5064391;28;20029;-48
2024/02/03 11:05:23;;;;;;;11.52;5.30;;;11.80;99.90;;;;;;5065015;28;20083;-50
2024/02/03 11:07:49;;;;;;;9.43;5.25;;;11.80;99.90;;;;;;5064051;28;20104;-50
2024/02/03 11:10:15;;;;;;;12.25;5.35;;;11.70;99.90;;;;;;5064284;28;20083;-51
2024/02/03 11:12:41;;;;;;;13.40;4.03;;;11.80;99.90;;;;;;5065298;28;20028;-51
2024/02/03 11:15:11;;;;;;;10.93;4.38;;;11.90;99.90;;;;;;5065487;28;20104;-51
2024/02/03 11:17:36;;;;;;;13.52;3.47;;;11.90;99.90;;;;;;5065200;28;20067;-50
2024/02/03 11:20:05;;;;;;;9.15;3.40;;;12.10;99.90;;;;;;5064895;28;20025;-51
2024/02/03 11:22:32;;;;;;;10.98;3.17;;;12.20;99.90;;;;;;5065275;28;20214;-51
2024/02/03 11:24:58;;;;;;;10.43;3.03;;;12.20;99.90;;;;;;5065287;28;20298;-50
2024/02/03 11:27:23;;;;;;;6.63;2.78;;;12.20;99.90;;;;;;5065012;28;20043;-51
2024/02/03 11:29:49;;;;;;;6.30;2.53;;;12.40;99.90;;;;;;5065218;28;20029;-51
2024/02/03 11:32:15;;;;;;;10.77;2.63;;;12.50;99.90;;;;;;5065168;28;20233;-49
2024/02/03 11:34:41;;;;;;;9.63;2.10;;;12.60;99.90;;;;;;5065246;28;20021;-48
2024/02/03 11:37:09;;;;;;;9.93;4.03;;;12.80;99.90;;;;;;5065212;28;20058;-49
2024/02/03 11:39:37;;;;;;;8.50;3.25;;;13.30;99.90;;;;;;5064423;28;20017;-48
2024/02/03 11:42:04;;;;;;;4.68;1.63;;;13.90;99.90;;;;;;5064961;28;20028;-47
2024/02/03 11:44:36;;;;;;;6.63;2.70;;;13.90;99.90;;;;;;5063898;28;20375;-51
2024/02/03 11:47:06;;;;;;;16.33;11.60;;;13.80;99.90;;;;;;5064818;28;20060;-50
2024/02/03 11:49:32;;;;;;;;;;;13.60;99.90;;;;;;5064961;28;20044;-51
2024/02/03 11:51:59;;;;;;;11.95;6.28;;;13.40;99.90;;;;;;5064862;28;20186;-50
2024/02/03 11:54:25;;;;;;;14.40;9.10;;;13.20;99.90;;;;;;5065134;28;20029;-49
2024/02/03 11:56:50;;;;;;;4.90;1.80;;;13.00;99.90;;;;;;5064810;28;20151;-50
2024/02/03 11:59:27;;;;;;;7.50;1.88;;;12.70;99.90;;;;;;5064678;28;20025;-50
2024/02/03 12:01:53;;;;;;;7.70;1.85;;;12.70;99.90;;;;;;5063650;28;20160;-51
2024/02/03 12:04:19;;;;;;;4.95;2.72;;;12.50;99.90;;;;;;5064809;28;20053;-51
2024/02/03 12:06:45;;;;;;;4.97;2.47;;;12.60;99.90;;;;;;5063701;28;20032;-51
2024/02/03 12:09:11;;;;;;;11.07;5.50;;;12.80;99.90;;;;;;5063638;28;20033;-51
2024/02/03 12:11:37;;;;;;;29.55;15.95;;;13.00;99.90;;;;;;5064447;28;20021;-51
2024/02/03 12:14:02;;;;;;;6.30;2.70;;;12.90;99.90;;;;;;5063522;28;20310;-51
2024/02/03 12:16:29;;;;;;;8.27;3.97;;;12.70;99.90;;;;;;5063553;28;20060;-50
2024/02/03 12:18:57;;;;;;;3.88;1.75;;;12.50;99.90;;;;;;5065026;28;20029;-51
2024/02/03 12:21:22;;;;;;;6.55;3.45;;;12.40;99.90;;;;;;5068619;28;20024;-51
2024/02/03 12:23:49;;;;;;;9.93;4.20;;;12.40;99.90;;;;;;5068528;28;20040;-51
2024/02/03 12:26:15;;;;;;;6.13;3.40;;;12.30;99.90;;;;;;5067180;28;20104;-50
2024/02/03 12:28:41;;;;;;;4.43;1.25;;;12.30;99.90;;;;;;5067041;28;20074;-51
2024/02/03 12:31:07;;;;;;;5.97;1.90;;;12.10;99.90;;;;;;5068133;28;20049;-51